Time;durP1;ratioP1;P1;durP2;ratioP2;P2;SDS_P1;SDS_P2;PMS_P1;PMS_P2;Temp;Humidity;BMP_temperature;BMP_pressure;BME280_temperature;BME280_humidity;BME280_pressure;Samples;Min_cycle;Max_cycle;Signal;HPM_P1;HPM_P2
2024/04/12 00:01:20;;;;;;;13.13;7.60;;;18.40;66.40;19.90;102974.00;;;;5429001;26;20225;-73
2024/04/12 00:03:49;;;;;;;9.68;7.32;;;18.40;66.40;20.00;102972.00;;;;5417390;26;20225;-73
2024/04/12 00:06:17;;;;;;;9.55;7.53;;;18.40;66.40;19.90;102975.00;;;;5415386;26;20217;-73
2024/04/12 00:08:49;;;;;;;7.85;6.80;;;18.40;66.40;19.90;102970.00;;;;5417161;26;20266;-74
2024/04/12 00:11:17;;;;;;;8.00;6.80;;;18.40;66.40;19.90;102964.00;;;;5417664;26;20230;-73
2024/04/12 00:13:47;;;;;;;8.38;6.15;;;18.40;66.40;19.90;102962.00;;;;5451298;26;20263;-73
2024/04/12 00:16:16;;;;;;;8.05;5.47;;;18.40;66.40;19.90;102959.00;;;;5452924;26;20264;-73
2024/04/12 00:18:47;;;;;;;6.95;6.25;;;18.40;66.30;19.90;102963.00;;;;5450997;26;22137;-73
2024/04/12 00:21:14;;;;;;;7.40;5.93;;;18.40;66.30;19.90;102970.00;;;;5448030;26;20236;-73
2024/04/12 00:23:46;;;;;;;6.40;4.80;;;18.40;66.20;19.80;102958.00;;;;5448319;26;20620;-73
2024/04/12 00:26:12;;;;;;;5.15;4.60;;;18.30;66.10;19.80;102957.00;;;;5453029;26;20316;-73
2024/04/12 00:28:42;;;;;;;5.13;4.28;;;18.30;66.00;19.80;102951.00;;;;5452620;26;20262;-73
2024/04/12 00:31:13;;;;;;;3.70;3.40;;;18.30;66.00;19.80;102960.00;;;;5453026;26;20216;-73
2024/04/12 00:33:42;;;;;;;3.50;3.20;;;18.30;65.90;19.70;102951.00;;;;5450793;26;20592;-73
2024/04/12 00:36:11;;;;;;;3.00;2.70;;;18.30;65.90;19.70;102947.00;;;;5451093;26;20299;-73
2024/04/12 00:38:42;;;;;;;2.53;2.33;;;18.30;65.80;19.70;102944.00;;;;5451518;26;20228;-73
2024/04/12 00:41:18;;;;;;;2.50;2.30;;;18.20;65.80;19.60;102950.00;;;;5452451;26;20729;-73
2024/04/12 00:43:51;;;;;;;2.50;2.30;;;18.20;65.90;19.70;102942.00;;;;5451657;26;20282;-73
2024/04/12 00:46:23;;;;;;;2.80;2.33;;;18.20;65.90;19.70;102926.00;;;;5449617;26;20332;-73
2024/04/12 00:48:54;;;;;;;2.20;2.00;;;18.20;65.90;19.70;102930.00;;;;5446103;26;20886;-73
2024/04/12 00:51:27;;;;;;;3.03;2.38;;;18.20;65.90;19.70;102928.00;;;;5451137;26;20228;-74
2024/04/12 00:53:58;;;;;;;3.75;2.40;;;18.20;65.90;19.70;102927.00;;;;5450934;26;20266;-74
2024/04/12 00:56:27;;;;;;;2.97;2.67;;;18.20;65.90;19.70;102914.00;;;;5425517;26;20760;-74
2024/04/12 00:58:59;;;;;;;4.45;3.20;;;18.20;65.90;19.70;102912.00;;;;5451739;26;20232;-74
2024/04/12 01:01:26;;;;;;;2.60;2.40;;;18.20;65.90;19.70;102906.00;;;;5451293;26;20224;-73
2024/04/12 01:03:56;;;;;;;3.20;2.90;;;18.20;65.90;19.70;102900.00;;;;5451635;26;20340;-73
2024/04/12 01:06:24;;;;;;;3.72;3.10;;;18.20;65.90;19.70;102897.00;;;;5451348;26;20242;-74
2024/04/12 01:08:54;;;;;;;3.17;2.88;;;18.20;66.00;19.70;102903.00;;;;5450744;26;20237;-73
2024/04/12 01:11:24;;;;;;;3.97;3.60;;;18.20;65.90;19.70;102898.00;;;;5451556;26;20236;-73
2024/04/12 01:13:54;;;;;;;4.95;3.95;;;18.20;66.00;19.60;102897.00;;;;5451347;26;20889;-73
2024/04/12 01:16:24;;;;;;;4.68;4.28;;;18.20;66.00;19.70;102885.00;;;;5449225;26;20228;-73
2024/04/12 01:18:55;;;;;;;5.03;4.53;;;18.10;66.00;19.70;102883.00;;;;5450446;26;20328;-73
2024/04/12 01:21:24;;;;;;;5.40;4.15;;;18.10;66.00;19.60;102896.00;;;;5450433;26;20336;-73
2024/04/12 01:23:53;;;;;;;4.75;3.92;;;18.10;66.00;19.60;102889.00;;;;5450745;26;20333;-75
2024/04/12 01:26:27;;;;;;;4.97;3.85;;;18.10;66.00;19.60;102885.00;;;;5442741;26;20252;-74
2024/04/12 01:28:56;;;;;;;3.80;2.70;;;18.10;66.00;19.60;102876.00;;;;5447765;26;20680;-74
2024/04/12 01:31:27;;;;;;;3.90;3.35;;;18.10;65.90;19.60;102874.00;;;;5451027;26;20290;-75
2024/04/12 01:33:54;;;;;;;3.25;2.65;;;18.10;65.90;19.60;102876.00;;;;5451994;26;20243;-74
2024/04/12 01:36:26;;;;;;;4.10;2.85;;;18.10;65.90;19.50;102876.00;;;;5451577;26;20236;-74
2024/04/12 01:38:53;;;;;;;3.05;2.40;;;18.10;65.90;19.50;102872.00;;;;5430879;26;20228;-74
2024/04/12 01:41:31;;;;;;;3.55;2.80;;;18.00;65.90;19.50;102871.00;;;;5447835;26;20737;-74
2024/04/12 01:44:04;;;;;;;3.05;2.75;;;18.00;66.10;19.60;102885.00;;;;5443428;26;20740;-74
2024/04/12 01:46:34;;;;;;;3.97;3.45;;;18.10;66.00;19.50;102895.00;;;;5444630;26;20232;-74
2024/04/12 01:49:05;;;;;;;3.05;2.75;;;18.00;66.10;19.50;102897.00;;;;5451025;26;20356;-74
2024/04/12 01:51:35;;;;;;;3.88;3.47;;;18.00;66.00;19.50;102888.00;;;;5451309;26;20230;-74
2024/04/12 01:54:13;;;;;;;3.25;2.95;;;18.00;66.00;19.50;102888.00;;;;5450901;26;20283;-74
2024/04/12 01:56:47;;;;;;;3.28;3.00;;;18.00;66.10;19.50;102889.00;;;;5450446;26;20270;-75
2024/04/12 01:59:15;;;;;;;3.65;3.15;;;18.00;66.10;19.50;102896.00;;;;5450432;26;20224;-74
2024/04/12 02:01:45;;;;;;;3.08;2.83;;;18.00;66.00;19.50;102888.00;;;;5451103;26;20760;-74
2024/04/12 02:04:15;;;;;;;2.80;2.35;;;18.00;66.20;19.50;102888.00;;;;5450653;26;20216;-74
2024/04/12 02:06:44;;;;;;;2.90;2.60;;;18.00;66.00;19.50;102883.00;;;;5449714;26;20867;-74
2024/04/12 02:09:14;;;;;;;3.00;2.50;;;18.00;66.00;19.50;102897.00;;;;5449445;26;20228;-74
2024/04/12 02:11:46;;;;;;;3.05;2.75;;;17.90;66.00;19.50;102889.00;;;;5450572;26;20733;-75
2024/04/12 02:14:13;;;;;;;2.50;2.30;;;17.90;66.10;19.50;102896.00;;;;5449188;26;20323;-74
2024/04/12 02:16:42;;;;;;;2.53;2.33;;;17.90;66.00;19.50;102877.00;;;;5450047;26;20240;-74
2024/04/12 02:19:10;;;;;;;3.05;2.70;;;17.90;66.00;19.50;102880.00;;;;5450450;26;20232;-75
2024/04/12 02:21:39;;;;;;;4.00;2.65;;;17.90;66.00;19.50;102877.00;;;;5422054;26;20236;-73
2024/04/12 02:24:08;;;;;;;2.35;2.15;;;17.90;66.10;19.50;102879.00;;;;5450766;26;20228;-74
2024/04/12 02:26:38;;;;;;;2.40;2.20;;;17.90;66.10;19.40;102880.00;;;;5450615;26;20278;-74
2024/04/12 02:29:08;;;;;;;2.00;1.90;;;17.90;66.10;19.40;102882.00;;;;5449488;26;20224;-74
2024/04/12 02:31:38;;;;;;;1.92;1.80;;;17.90;66.80;19.50;102875.00;;;;5449981;26;20232;-73
2024/04/12 02:34:04;;;;;;;2.10;1.77;;;17.90;66.10;19.40;102876.00;;;;5433155;26;20227;-74
2024/04/12 02:36:33;;;;;;;2.85;1.83;;;17.90;66.10;19.40;102875.00;;;;5445352;26;20232;-74
2024/04/12 02:39:04;;;;;;;1.52;1.42;;;17.90;66.10;19.40;102882.00;;;;5435916;26;20260;-75
2024/04/12 02:41:37;;;;;;;1.73;1.58;;;17.90;66.10;19.50;102878.00;;;;5447741;26;20231;-74
2024/04/12 02:44:06;;;;;;;1.75;1.65;;;17.90;66.10;19.50;102878.00;;;;5448743;26;20224;-74
2024/04/12 02:46:38;;;;;;;1.50;1.40;;;17.90;66.10;19.40;102879.00;;;;5446949;26;20236;-74
2024/04/12 02:49:06;;;;;;;1.95;1.75;;;17.90;66.10;19.50;102880.00;;;;5450209;26;20270;-74
2024/04/12 02:51:35;;;;;;;1.92;1.73;;;17.90;66.10;19.50;102876.00;;;;5448659;26;20228;-74
2024/04/12 02:54:01;;;;;;;1.75;1.65;;;17.90;66.10;19.50;102872.00;;;;5449711;26;20309;-74
2024/04/12 02:56:32;;;;;;;1.83;1.67;;;17.90;66.10;19.40;102876.00;;;;5448445;26;20236;-74
2024/04/12 02:58:59;;;;;;;2.67;2.08;;;17.90;66.10;19.40;102876.00;;;;5449224;26;20595;-74
2024/04/12 03:01:28;;;;;;;2.40;2.05;;;17.90;66.10;19.40;102869.00;;;;5449859;26;20228;-74
2024/04/12 03:03:58;;;;;;;2.10;1.83;;;17.90;66.10;19.40;102873.00;;;;5449533;26;20262;-75
2024/04/12 03:06:28;;;;;;;2.08;1.88;;;17.90;66.20;19.40;102876.00;;;;5449652;26;20665;-74
2024/04/12 03:08:59;;;;;;;2.72;2.03;;;17.90;66.10;19.40;102863.00;;;;5445004;26;20236;-74
2024/04/12 03:11:33;;;;;;;2.97;2.47;;;17.90;66.20;19.40;102856.00;;;;5449444;26;20279;-73
2024/04/12 03:14:03;;;;;;;4.32;2.28;;;17.90;66.30;19.40;102856.00;;;;5447895;26;20720;-74
2024/04/12 03:16:33;;;;;;;3.33;2.42;;;17.90;66.30;19.40;102859.00;;;;5447811;26;20271;-75
2024/04/12 03:19:07;;;;;;;2.35;2.15;;;17.90;66.30;19.40;102858.00;;;;5448366;26;20243;-74
2024/04/12 03:21:38;;;;;;;3.38;2.40;;;17.80;66.20;19.40;102851.00;;;;5449691;26;20741;-74
2024/04/12 03:24:04;;;;;;;2.90;2.28;;;17.80;66.30;19.40;102845.00;;;;5440530;26;20767;-74
2024/04/12 03:26:33;;;;;;;2.53;2.33;;;17.80;66.20;19.40;102854.00;;;;5447760;26;20286;-75
2024/04/12 03:29:03;;;;;;;3.13;2.58;;;17.80;66.30;19.40;102851.00;;;;5430864;26;20236;-74
2024/04/12 03:31:33;;;;;;;4.45;2.20;;;17.80;66.40;19.40;102856.00;;;;5449413;26;20232;-74
2024/04/12 03:34:06;;;;;;;2.28;2.08;;;17.80;66.30;19.30;102850.00;;;;5448880;26;20237;-74
2024/04/12 03:36:53;;;;;;;2.47;2.28;;;17.80;66.40;19.30;102848.00;;;;5448289;26;20244;-74
2024/04/12 03:39:28;;;;;;;2.47;1.92;;;17.80;66.40;19.40;102848.00;;;;5436531;26;20224;-74
2024/04/12 03:42:04;;;;;;;2.08;1.83;;;17.80;66.40;19.40;102838.00;;;;5451504;26;20299;-75
2024/04/12 03:44:30;;;;;;;2.88;2.20;;;17.80;66.40;19.40;102835.00;;;;5453182;26;20568;-74
2024/04/12 03:47:07;;;;;;;2.63;2.33;;;17.80;66.40;19.40;102833.00;;;;5450761;26;20228;-74
2024/04/12 03:49:39;;;;;;;2.85;1.92;;;17.80;66.50;19.40;102830.00;;;;5450500;26;20721;-74
2024/04/12 03:52:11;;;;;;;3.70;2.58;;;17.80;66.50;19.40;102828.00;;;;5452737;26;20276;-74
2024/04/12 03:54:38;;;;;;;2.58;1.90;;;17.80;66.50;19.40;102830.00;;;;5452416;26;20232;-74
2024/04/12 03:57:09;;;;;;;2.17;1.88;;;17.80;66.40;19.40;102837.00;;;;5447117;26;20232;-75
2024/04/12 03:59:36;;;;;;;1.70;1.55;;;17.80;66.50;19.40;102835.00;;;;5446479;26;20295;-74
2024/04/12 04:02:09;;;;;;;2.05;1.80;;;17.80;66.50;19.40;102826.00;;;;5451684;26;20264;-74
2024/04/12 04:04:47;;;;;;;2.08;1.70;;;17.80;66.50;19.30;102816.00;;;;5452364;26;20232;-74
2024/04/12 04:07:17;;;;;;;2.15;1.80;;;17.80;66.70;19.40;102823.00;;;;5451297;26;20261;-74
2024/04/12 04:09:45;;;;;;;2.45;1.80;;;17.80;66.60;19.40;102819.00;;;;5452577;26;20717;-74
2024/04/12 04:12:14;;;;;;;2.70;2.40;;;17.80;66.60;19.40;102819.00;;;;5451593;26;20232;-74
2024/04/12 04:14:47;;;;;;;2.00;1.83;;;17.80;66.60;19.40;102810.00;;;;5452217;26;20224;-75
2024/04/12 04:17:18;;;;;;;2.50;2.30;;;17.80;66.60;19.40;102818.00;;;;5451280;26;20280;-74
2024/04/12 04:19:51;;;;;;;2.38;2.17;;;17.80;66.70;19.40;102823.00;;;;5451406;26;20228;-73
2024/04/12 04:22:39;;;;;;;2.90;2.65;;;17.80;66.80;19.40;102824.00;;;;5448581;26;20600;-73
2024/04/12 04:25:08;;;;;;;3.45;3.13;;;17.80;66.70;19.30;102828.00;;;;5450771;26;20228;-74
2024/04/12 04:27:37;;;;;;;3.85;2.85;;;17.80;66.70;19.40;102826.00;;;;5448782;26;20725;-74
2024/04/12 04:30:05;;;;;;;4.32;3.50;;;17.80;66.70;19.40;102831.00;;;;5451893;26;20553;-74
2024/04/12 04:32:34;;;;;;;3.15;2.88;;;17.80;66.70;19.40;102827.00;;;;5451433;26;20228;-74
2024/04/12 04:35:08;;;;;;;4.18;3.78;;;17.80;66.70;19.30;102830.00;;;;5451793;26;20369;-74
2024/04/12 04:37:39;;;;;;;4.35;3.85;;;17.80;66.80;19.40;102819.00;;;;5451287;26;20274;-74
2024/04/12 04:40:11;;;;;;;5.32;3.92;;;17.80;66.70;19.40;102820.00;;;;5440622;26;20299;-74
2024/04/12 04:42:43;;;;;;;4.15;3.55;;;17.80;66.80;19.40;102823.00;;;;5451551;26;20473;-74
2024/04/12 04:45:09;;;;;;;4.40;4.00;;;17.80;66.80;19.40;102825.00;;;;5451470;26;20228;-74
2024/04/12 04:47:39;;;;;;;6.88;4.82;;;17.90;66.80;19.40;102823.00;;;;5451062;26;20753;-74
2024/04/12 04:50:08;;;;;;;5.57;4.55;;;17.90;66.80;19.40;102811.00;;;;5452561;26;20350;-74
2024/04/12 04:52:39;;;;;;;5.45;4.63;;;17.90;66.80;19.40;102817.00;;;;5452124;26;20220;-74
2024/04/12 04:55:07;;;;;;;6.55;4.60;;;17.90;66.80;19.40;102815.00;;;;5451327;26;20336;-74
2024/04/12 04:57:38;;;;;;;7.13;5.72;;;17.90;66.80;19.40;102805.00;;;;5451085;26;20224;-75
2024/04/12 05:00:06;;;;;;;5.95;5.03;;;17.90;66.80;19.40;102808.00;;;;5445845;26;20233;-74
2024/04/12 05:02:35;;;;;;;5.45;4.63;;;17.90;66.80;19.40;102816.00;;;;5449325;26;20274;-74
2024/04/12 05:05:04;;;;;;;5.70;4.72;;;17.80;66.70;19.40;102811.00;;;;5452254;26;20212;-75
2024/04/12 05:07:36;;;;;;;5.50;4.75;;;17.90;66.80;19.40;102811.00;;;;5449095;26;20653;-74
2024/04/12 05:10:09;;;;;;;5.82;5.22;;;17.90;66.90;19.40;102819.00;;;;5451214;26;20369;-73
2024/04/12 05:12:40;;;;;;;5.18;4.68;;;17.90;66.90;19.40;102816.00;;;;5436034;26;20279;-74
2024/04/12 05:15:30;;;;;;;5.55;4.78;;;17.90;66.80;19.40;102823.00;;;;5422633;26;20268;-74
2024/04/12 05:18:03;;;;;;;6.50;4.85;;;17.90;66.90;19.40;102814.00;;;;5451614;26;20232;-73
2024/04/12 05:20:38;;;;;;;7.03;4.75;;;17.90;66.80;19.40;102817.00;;;;5450842;26;20274;-74
2024/04/12 05:23:11;;;;;;;5.35;4.63;;;17.90;66.90;19.40;102825.00;;;;5447142;26;20228;-73
2024/04/12 05:25:40;;;;;;;5.43;4.82;;;17.90;67.00;19.50;102821.00;;;;5429409;26;20771;-73
2024/04/12 05:28:12;;;;;;;6.03;4.97;;;17.90;66.90;19.50;102815.00;;;;5448326;26;20236;-74
2024/04/12 05:30:42;;;;;;;5.65;4.80;;;17.90;66.90;19.50;102814.00;;;;5450877;26;20236;-74
2024/04/12 05:33:16;;;;;;;5.68;4.68;;;17.90;67.10;19.50;102815.00;;;;5442028;26;20738;-73
2024/04/12 05:35:43;;;;;;;5.20;4.70;;;17.90;67.00;19.60;102822.00;;;;5438340;26;20303;-73
2024/04/12 05:38:20;;;;;;;4.95;4.47;;;18.00;67.10;19.60;102819.00;;;;5448652;26;20271;-73
2024/04/12 05:40:52;;;;;;;5.13;4.63;;;18.00;67.10;19.60;102816.00;;;;5445533;26;20836;-72
2024/04/12 05:43:21;;;;;;;5.10;4.60;;;18.00;67.00;19.60;102816.00;;;;5448018;26;20232;-73
2024/04/12 05:45:49;;;;;;;5.65;4.85;;;18.00;67.00;19.60;102816.00;;;;5451735;26;20279;-73
2024/04/12 05:48:21;;;;;;;5.20;4.53;;;18.00;67.00;19.70;102806.00;;;;5446403;26;20275;-73
2024/04/12 05:50:49;;;;;;;5.45;4.95;;;18.10;67.00;19.70;102815.00;;;;5449445;26;20290;-73
2024/04/12 05:53:25;;;;;;;6.03;4.85;;;18.10;67.00;19.70;102813.00;;;;5452036;26;20311;-73
2024/04/12 05:55:52;;;;;;;6.88;4.95;;;18.10;67.00;19.70;102805.00;;;;5443251;26;20293;-73
2024/04/12 05:58:23;;;;;;;7.45;5.43;;;18.10;66.90;19.70;102811.00;;;;5447239;26;20271;-73
2024/04/12 06:00:50;;;;;;;7.55;6.20;;;18.10;66.90;19.80;102813.00;;;;5446893;26;20295;-73
2024/04/12 06:03:25;;;;;;;7.25;5.05;;;18.10;66.90;19.80;102817.00;;;;5449683;26;20240;-74
2024/04/12 06:05:55;;;;;;;7.50;5.53;;;18.10;66.90;19.80;102819.00;;;;5449438;26;20273;-73
2024/04/12 06:08:28;;;;;;;7.03;5.35;;;18.20;67.00;19.80;102813.00;;;;5449650;26;20236;-78
2024/04/12 06:10:57;;;;;;;7.00;5.75;;;18.20;67.00;19.80;102818.00;;;;5451008;26;20216;-77
2024/04/12 06:13:25;;;;;;;7.57;5.60;;;18.20;66.90;19.80;102832.00;;;;5450329;26;20228;-78
2024/04/12 06:15:55;;;;;;;7.10;5.60;;;18.30;66.90;19.90;102829.00;;;;5450765;26;20231;-78
2024/04/12 06:18:21;;;;;;;6.55;5.38;;;18.20;66.90;19.90;102836.00;;;;5449554;26;20784;-79
2024/04/12 06:20:51;;;;;;;6.70;5.57;;;18.30;66.90;19.90;102831.00;;;;5450416;26;20258;-80
2024/04/12 06:23:19;;;;;;;8.95;5.68;;;18.30;66.90;20.00;102830.00;;;;5450857;26;20255;-76
2024/04/12 06:25:51;;;;;;;6.78;4.85;;;18.30;67.00;20.00;102822.00;;;;5450070;26;20262;-79
2024/04/12 06:28:19;;;;;;;12.85;6.50;;;18.40;67.10;20.10;102837.00;;;;5451024;26;20241;-78
2024/04/12 06:30:52;;;;;;;10.80;5.78;;;18.40;67.10;20.10;102835.00;;;;5450560;26;20224;-78
2024/04/12 06:33:20;;;;;;;10.27;5.78;;;18.40;67.10;20.10;102831.00;;;;5449898;26;21016;-77
2024/04/12 06:35:49;;;;;;;7.32;5.70;;;18.50;67.10;20.10;102832.00;;;;5428753;26;20237;-79
2024/04/12 06:38:21;;;;;;;8.68;5.35;;;18.50;67.20;20.20;102831.00;;;;5448745;26;20278;-78
2024/04/12 06:40:57;;;;;;;7.68;5.70;;;18.50;66.90;20.10;102833.00;;;;5450996;26;20227;-78
2024/04/12 06:43:23;;;;;;;7.18;5.60;;;18.60;66.90;20.20;102834.00;;;;5450794;26;20216;-79
2024/04/12 06:46:00;;;;;;;7.38;5.78;;;18.60;66.80;20.20;102831.00;;;;5447733;26;20235;-79
2024/04/12 06:48:26;;;;;;;8.18;5.75;;;18.60;66.80;20.30;102834.00;;;;5449452;26;20267;-77
2024/04/12 06:50:58;;;;;;;8.20;5.35;;;18.70;66.70;20.30;102837.00;;;;5450669;26;20278;-77
2024/04/12 06:53:24;;;;;;;7.47;5.18;;;18.70;66.70;20.30;102837.00;;;;5450805;26;20541;-77
2024/04/12 06:56:06;;;;;;;7.35;5.22;;;18.80;66.70;20.30;102849.00;;;;5421587;26;20240;-77
2024/04/12 06:58:32;;;;;;;6.32;4.95;;;18.80;66.70;20.40;102846.00;;;;5414855;26;20251;-78
2024/04/12 07:01:05;;;;;;;8.23;5.35;;;18.80;66.50;20.40;102855.00;;;;5448007;26;20279;-79
2024/04/12 07:03:34;;;;;;;6.43;5.45;;;18.80;66.60;20.40;102857.00;;;;5450139;26;20232;-78
2024/04/12 07:06:02;;;;;;;7.32;5.25;;;18.80;66.50;20.40;102853.00;;;;5450067;26;20216;-80
2024/04/12 07:08:29;;;;;;;8.40;5.22;;;18.90;66.50;20.40;102851.00;;;;5450392;26;20452;-80
2024/04/12 07:11:02;;;;;;;7.60;5.18;;;18.90;66.40;20.50;102850.00;;;;5450256;26;20224;-78
2024/04/12 07:13:29;;;;;;;8.80;6.00;;;18.90;66.50;20.50;102851.00;;;;5450609;26;20324;-79
2024/04/12 07:16:01;;;;;;;9.27;5.35;;;18.90;66.40;20.60;102855.00;;;;5452644;26;20227;-75
2024/04/12 07:18:29;;;;;;;9.18;5.50;;;19.00;66.60;20.60;102854.00;;;;5452781;26;20216;-78
2024/04/12 07:21:14;;;;;;;10.40;5.85;;;19.00;66.60;20.70;102841.00;;;;5454146;26;20228;-79
2024/04/12 07:23:41;;;;;;;7.72;5.28;;;19.00;66.70;20.80;102843.00;;;;5452104;26;20216;-79
2024/04/12 07:26:14;;;;;;;7.68;5.47;;;19.10;66.70;20.80;102842.00;;;;5454316;26;20714;-79
2024/04/12 07:28:41;;;;;;;8.68;5.63;;;19.20;67.50;20.90;102846.00;;;;5454210;26;20216;-78
2024/04/12 07:31:09;;;;;;;7.07;5.78;;;19.20;66.70;21.00;102850.00;;;;5452672;26;20713;-77
2024/04/12 07:33:35;;;;;;;8.05;5.22;;;19.30;66.80;21.00;102844.00;;;;5452599;26;20278;-80
2024/04/12 07:36:16;;;;;;;5.95;5.07;;;19.30;66.70;21.10;102842.00;;;;5453121;26;20263;-79
2024/04/12 07:38:42;;;;;;;7.25;5.00;;;19.40;66.60;21.10;102844.00;;;;5453280;26;20235;-80
2024/04/12 07:41:13;;;;;;;6.72;4.88;;;19.50;66.30;21.10;102845.00;;;;5451682;26;20248;-78
2024/04/12 07:43:42;;;;;;;9.48;5.32;;;19.50;66.10;21.10;102850.00;;;;5455850;26;20224;-77
2024/04/12 07:46:14;;;;;;;5.38;4.10;;;19.60;66.20;21.20;102850.00;;;;5445567;26;20230;-77
2024/04/12 07:48:41;;;;;;;7.22;4.50;;;19.60;65.90;21.20;102856.00;;;;5446247;26;20728;-79
2024/04/12 07:51:12;;;;;;;5.30;4.45;;;19.60;65.80;21.20;102856.00;;;;5432664;26;20269;-77
2024/04/12 07:53:38;;;;;;;9.02;4.25;;;19.70;65.80;21.30;102855.00;;;;5417725;26;20218;-76
2024/04/12 07:56:14;;;;;;;7.47;4.25;;;19.80;65.70;21.40;102861.00;;;;5428258;26;20586;-78
2024/04/12 07:58:50;;;;;;;7.20;4.57;;;19.80;65.60;21.30;102853.00;;;;5452510;26;20250;-78
2024/04/12 08:01:25;;;;;;;5.57;4.05;;;19.80;65.40;21.40;102847.00;;;;5451631;26;20236;-77
2024/04/12 08:03:56;;;;;;;6.38;4.32;;;19.90;65.30;21.50;102845.00;;;;5431340;26;20270;-78
2024/04/12 08:09:21;;;;;;;8.27;4.35;;;20.00;65.10;21.50;102846.00;;;;5450417;26;20284;-79
2024/04/12 08:11:51;;;;;;;8.45;4.43;;;20.00;64.80;21.50;102845.00;;;;5449766;26;20228;-78
2024/04/12 08:14:22;;;;;;;7.75;4.18;;;20.00;64.70;21.60;102844.00;;;;5451383;26;20316;-78
2024/04/12 08:16:52;;;;;;;6.63;4.05;;;20.10;64.70;21.60;102838.00;;;;5443381;26;20250;-77
2024/04/12 08:19:38;;;;;;;5.13;3.55;;;20.10;64.70;21.70;102839.00;;;;5441155;26;20278;-78
2024/04/12 08:22:06;;;;;;;8.38;3.85;;;20.20;64.60;21.70;102840.00;;;;5432961;26;20760;-77
2024/04/12 08:24:35;;;;;;;5.88;3.67;;;20.20;64.40;21.80;102846.00;;;;5439734;26;20295;-76
2024/04/12 08:27:02;;;;;;;4.93;3.72;;;20.30;64.50;21.80;102840.00;;;;5438850;26;20314;-77
2024/04/12 08:29:34;;;;;;;7.57;4.40;;;20.30;64.40;21.80;102848.00;;;;5446703;26;20236;-79
2024/04/12 08:32:11;;;;;;;6.50;3.72;;;20.40;64.40;21.90;102844.00;;;;5451834;26;20228;-78
2024/04/12 08:34:43;;;;;;;8.95;4.55;;;20.40;64.30;22.00;102841.00;;;;5451936;26;20247;-79
2024/04/12 08:37:12;;;;;;;5.55;3.63;;;20.50;64.10;22.10;102851.00;;;;5451116;26;20565;-80
2024/04/12 08:39:45;;;;;;;5.97;4.07;;;20.60;64.20;22.10;102854.00;;;;5448180;26;20232;-78
2024/04/12 08:42:14;;;;;;;5.28;3.75;;;20.60;64.00;22.10;102848.00;;;;5433684;26;20240;-79
2024/04/12 08:44:47;;;;;;;8.70;4.30;;;20.60;63.60;22.10;102841.00;;;;5440482;26;20231;-78
2024/04/12 08:47:30;;;;;;;10.23;3.72;;;20.70;63.50;22.20;102850.00;;;;5448073;26;20639;-79
2024/04/12 08:50:06;;;;;;;4.90;3.28;;;20.70;63.20;22.10;102850.00;;;;5423642;26;20331;-77
2024/04/12 08:52:42;;;;;;;5.53;3.67;;;20.80;62.80;22.20;102856.00;;;;5439337;26;20747;-77
2024/04/12 08:55:14;;;;;;;6.25;3.33;;;20.80;62.90;22.30;102859.00;;;;5442641;26;20314;-79
2024/04/12 08:57:41;;;;;;;6.18;3.90;;;20.90;63.00;22.30;102859.00;;;;5450414;26;20271;-79
2024/04/12 09:00:18;;;;;;;8.13;4.60;;;20.90;63.10;22.40;102854.00;;;;5446840;26;20279;-77
2024/04/12 09:02:48;;;;;;;6.28;3.58;;;21.00;63.10;22.50;102858.00;;;;5446742;26;20232;-77
2024/04/12 09:05:22;;;;;;;5.95;3.65;;;21.00;63.10;22.60;102854.00;;;;5449419;26;20287;-79
2024/04/12 09:07:50;;;;;;;5.93;3.15;;;21.10;63.10;22.70;102860.00;;;;5447177;26;20231;-78
2024/04/12 09:10:20;;;;;;;4.60;3.20;;;21.20;62.80;22.80;102859.00;;;;5438615;26;20236;-79
2024/04/12 09:12:46;;;;;;;7.28;3.75;;;21.30;62.80;22.80;102869.00;;;;5451831;26;20216;-78
2024/04/12 09:15:27;;;;;;;5.18;3.50;;;21.40;62.50;22.80;102868.00;;;;5428989;26;20304;-78
2024/04/12 09:18:00;;;;;;;6.72;3.35;;;21.50;62.00;22.90;102870.00;;;;5452239;26;20278;-82
2024/04/12 09:20:35;;;;;;;5.88;2.92;;;21.50;61.70;22.90;102865.00;;;;5451964;26;20274;-78
2024/04/12 09:23:13;;;;;;;6.43;3.28;;;21.50;61.00;23.00;102858.00;;;;5452261;26;20254;-79
2024/04/12 09:25:54;;;;;;;6.18;3.22;;;21.60;61.10;22.90;102856.00;;;;5452170;26;20322;-78
2024/04/12 09:28:22;;;;;;;4.32;3.00;;;21.60;60.60;23.10;102864.00;;;;5449474;26;20266;-77
2024/04/12 09:33:50;;;;;;;7.25;3.55;;;21.70;60.70;23.10;102861.00;;;;5454381;26;20325;-79
2024/04/12 09:36:38;;;;;;;11.63;4.60;;;21.80;60.80;23.10;102859.00;;;;5446297;26;20282;-79
2024/04/12 09:39:13;;;;;;;8.93;4.68;;;21.80;60.70;23.20;102864.00;;;;5434066;26;20221;-79
2024/04/12 09:41:53;;;;;;;4.70;3.30;;;21.90;59.80;23.20;102858.00;;;;5451457;26;20582;-78
2024/04/12 09:44:27;;;;;;;4.82;3.35;;;21.90;60.30;23.30;102868.00;;;;5451282;26;20272;-82
2024/04/12 10:40:04;;;;;;;5.40;2.30;;;23.00;58.70;24.40;102859.00;;;;5442406;26;20619;-78
2024/04/12 10:42:33;;;;;;;10.55;3.42;;;23.10;58.70;24.50;102851.00;;;;5448416;26;20232;-80
2024/04/12 10:45:07;;;;;;;3.47;2.75;;;23.10;58.60;24.50;102847.00;;;;5451121;26;20232;-80
2024/04/12 10:47:37;;;;;;;6.05;2.83;;;23.20;58.40;24.60;102838.00;;;;5450002;26;20693;-80
2024/04/12 10:50:07;;;;;;;4.72;2.85;;;23.30;58.30;24.60;102858.00;;;;5450738;26;20270;-77
2024/04/12 10:52:35;;;;;;;4.30;2.35;;;23.30;57.70;24.60;102846.00;;;;5454413;26;20283;-80
2024/04/12 10:55:08;;;;;;;3.58;2.20;;;23.40;57.60;24.70;102844.00;;;;5453295;26;20244;-79
2024/04/12 10:57:38;;;;;;;3.05;1.73;;;23.40;57.80;24.70;102838.00;;;;5454302;26;20582;-78
2024/04/12 11:00:14;;;;;;;6.35;2.28;;;23.40;57.70;24.80;102841.00;;;;5452575;26;20236;-81
2024/04/12 11:02:42;;;;;;;3.17;1.95;;;23.50;57.60;24.80;102836.00;;;;5453378;26;20823;-79
2024/04/12 11:05:44;;;;;;;5.90;2.42;;;23.50;57.60;24.80;102832.00;;;;5453481;26;20805;-77
2024/04/12 11:08:14;;;;;;;4.65;2.15;;;23.60;57.40;24.90;102835.00;;;;5452368;26;20713;-80
2024/04/12 11:10:54;;;;;;;3.08;1.60;;;23.70;57.50;25.00;102835.00;;;;5451729;26;20819;-78
2024/04/12 11:13:28;;;;;;;2.83;1.95;;;23.80;58.10;25.10;102837.00;;;;5454064;26;20328;-78
2024/04/12 11:32:42;;;;;;;1.58;0.90;;;24.10;56.10;25.30;102816.00;;;;5454410;26;20337;-83
2024/04/12 11:35:15;;;;;;;1.17;0.90;;;24.20;55.90;25.30;102822.00;;;;5453345;26;20262;-79
2024/04/12 11:37:44;;;;;;;2.65;1.17;;;24.10;56.00;25.30;102803.00;;;;5451149;26;20275;-77
2024/04/12 11:40:16;;;;;;;1.05;0.80;;;24.20;55.80;25.30;102810.00;;;;5453998;26;20240;-79
2024/04/12 11:42:48;;;;;;;3.50;1.02;;;24.20;55.30;25.30;102815.00;;;;5449313;26;20322;-84
2024/04/12 11:45:17;;;;;;;1.55;0.65;;;24.20;55.20;25.30;102804.00;;;;5453935;26;20224;-77
2024/04/12 11:47:47;;;;;;;3.15;0.80;;;24.20;55.50;25.40;102799.00;;;;5453270;26;20220;-79
2024/04/12 11:50:14;;;;;;;1.55;0.47;;;24.20;55.50;25.40;102808.00;;;;5453602;26;20216;-79
2024/04/12 11:52:43;;;;;;;2.08;0.82;;;24.20;55.60;25.50;102821.00;;;;5452544;26;20244;-84
2024/04/12 11:55:12;;;;;;;2.13;1.10;;;24.20;55.50;25.50;102823.00;;;;5452901;26;20220;-80
2024/04/12 11:57:41;;;;;;;1.52;0.57;;;24.30;55.20;25.50;102815.00;;;;5453221;26;20240;-81
2024/04/12 12:00:09;;;;;;;1.40;0.60;;;24.30;54.90;25.50;102813.00;;;;5432787;26;20338;-77
2024/04/12 12:02:42;;;;;;;0.82;0.60;;;24.30;54.90;25.50;102824.00;;;;5449876;26;20297;-80
2024/04/12 12:05:09;;;;;;;1.45;0.98;;;24.30;54.90;25.50;102819.00;;;;5452797;26;20232;-79
2024/04/12 12:07:38;;;;;;;1.05;0.60;;;24.40;54.50;25.50;102819.00;;;;5451038;26;20789;-77
2024/04/12 12:10:08;;;;;;;1.95;0.75;;;24.40;54.50;25.50;102820.00;;;;5451251;26;20350;-83
2024/04/12 12:12:41;;;;;;;0.73;0.50;;;24.40;54.70;25.50;102816.00;;;;5449361;26;20232;-80
2024/04/12 12:15:09;;;;;;;1.35;0.38;;;24.40;54.10;25.50;102820.00;;;;5449607;26;20240;-78
2024/04/12 12:17:37;;;;;;;3.83;0.82;;;24.50;54.50;25.40;102825.00;;;;5443196;26;20266;-82
2024/04/12 12:20:07;;;;;;;2.28;0.70;;;24.40;54.10;25.40;102815.00;;;;5439210;26;20419;-78